Time;durP1;ratioP1;P1;durP2;ratioP2;P2;SDS_P1;SDS_P2;PMS_P1;PMS_P2;Temp;Humidity;BMP_temperature;BMP_pressure;BME280_temperature;BME280_humidity;BME280_pressure;Samples;Min_cycle;Max_cycle;Signal;HPM_P1;HPM_P2
2021/06/01 00:00:07;;;;;;;5.38;3.70;;;10.50;99.60;;;;;;5033186;28;20034;-75
2021/06/01 00:02:34;;;;;;;3.78;3.35;;;10.50;99.90;;;;;;5036396;28;20052;-76
2021/06/01 00:05:00;;;;;;;5.20;3.78;;;10.30;99.80;;;;;;5041573;28;20033;-75
2021/06/01 00:07:26;;;;;;;4.70;3.67;;;10.20;99.90;;;;;;5032975;28;20467;-75
2021/06/01 00:09:53;;;;;;;4.88;3.63;;;10.30;99.90;;;;;;5041773;28;20204;-76
2021/06/01 00:12:19;;;;;;;5.55;3.13;;;10.30;99.90;;;;;;5039390;28;20056;-75
2021/06/01 00:14:45;;;;;;;6.25;3.53;;;10.30;99.90;;;;;;5032684;28;20037;-75
2021/06/01 00:17:12;;;;;;;5.70;3.95;;;10.40;99.90;;;;;;5033332;28;20391;-75
2021/06/01 00:19:38;;;;;;;4.78;3.65;;;10.30;99.90;;;;;;5039549;28;20045;-75
2021/06/01 00:22:04;;;;;;;4.25;3.85;;;10.40;99.90;;;;;;5051984;28;20037;-75
2021/06/01 00:24:31;;;;;;;3.42;2.75;;;10.30;99.90;;;;;;5051621;28;20037;-75
2021/06/01 00:26:57;;;;;;;4.30;3.17;;;10.30;99.60;;;;;;5038841;28;20042;-75
2021/06/01 00:29:23;;;;;;;5.85;3.90;;;10.10;99.30;;;;;;5041843;28;20045;-75
2021/06/01 00:31:49;;;;;;;4.38;3.50;;;10.10;99.90;;;;;;5045762;28;20036;-76
2021/06/01 00:34:15;;;;;;;6.07;3.30;;;10.10;99.90;;;;;;5048741;28;20041;-75
2021/06/01 00:36:42;;;;;;;5.20;3.47;;;10.00;99.90;;;;;;5051100;28;20044;-75
2021/06/01 00:39:08;;;;;;;5.20;3.65;;;9.90;99.90;;;;;;5051366;28;20040;-75
2021/06/01 00:41:34;;;;;;;4.72;3.50;;;9.90;99.90;;;;;;5049757;28;20052;-79
2021/06/01 00:44:00;;;;;;;3.75;2.90;;;9.90;99.90;;;;;;5051466;28;20041;-76
2021/06/01 00:46:27;;;;;;;5.38;4.28;;;10.00;99.90;;;;;;5030064;28;20034;-75
2021/06/01 00:48:53;;;;;;;6.03;3.97;;;10.00;99.90;;;;;;5049016;28;20041;-75
2021/06/01 00:51:19;;;;;;;5.47;3.40;;;9.90;99.90;;;;;;5061724;28;20032;-84
2021/06/01 00:53:46;;;;;;;5.43;3.63;;;9.90;99.90;;;;;;5072142;28;20029;-83
2021/06/01 00:56:12;;;;;;;7.45;3.90;;;9.90;99.90;;;;;;5065526;28;20033;-75
2021/06/01 00:58:38;;;;;;;4.78;3.50;;;9.80;99.90;;;;;;5049819;28;20108;-76
2021/06/01 01:03:35;;;;;;;5.88;4.65;;;9.50;99.90;;;;;;5034239;28;20109;-75
2021/06/01 01:07:15;;;;;;;6.07;3.90;;;9.40;99.90;;;;;;5051293;28;20053;-75
2021/06/01 01:09:30;;;;;;;4.45;3.60;;;9.50;99.90;;;;;;5030011;28;20783;-75
2021/06/01 01:12:49;;;;;;;4.63;3.70;;;9.60;99.90;;;;;;5032197;28;20041;-75
2021/06/01 01:15:16;;;;;;;5.72;3.95;;;9.50;99.90;;;;;;4983172;28;20490;-75
2021/06/01 01:17:46;;;;;;;4.00;3.47;;;9.30;99.90;;;;;;5021149;28;20042;-75
2021/06/01 01:20:49;;;;;;;4.60;3.77;;;9.40;99.90;;;;;;5050721;28;20056;-75
2021/06/01 01:23:18;;;;;;;6.75;4.00;;;9.40;99.90;;;;;;5033524;28;20050;-75
2021/06/01 01:26:03;;;;;;;6.03;3.42;;;9.30;99.90;;;;;;5037275;28;20467;-75
2021/06/01 01:28:53;;;;;;;4.55;3.70;;;9.30;99.90;;;;;;5050306;28;20060;-75
2021/06/01 01:31:33;;;;;;;4.85;4.10;;;9.30;99.90;;;;;;5051019;28;20378;-75
2021/06/01 01:34:00;;;;;;;7.78;4.40;;;9.30;99.90;;;;;;5051580;28;20045;-75
2021/06/01 01:36:29;;;;;;;5.50;3.78;;;9.30;99.90;;;;;;5035452;28;20048;-75
2021/06/01 01:38:58;;;;;;;5.32;3.58;;;9.20;99.90;;;;;;5050203;28;20056;-75
2021/06/01 01:41:24;;;;;;;6.03;4.07;;;9.20;99.90;;;;;;5050949;28;20382;-75
2021/06/01 01:43:53;;;;;;;6.47;4.15;;;9.20;99.90;;;;;;5046659;28;20026;-75
2021/06/01 01:48:59;;;;;;;5.20;4.20;;;9.20;99.90;;;;;;5047008;28;20037;-79
2021/06/01 01:51:31;;;;;;;4.78;3.40;;;9.30;99.90;;;;;;5036008;28;20088;-75
2021/06/01 01:54:00;;;;;;;6.13;4.85;;;9.30;99.90;;;;;;5035102;28;20038;-75
2021/06/01 01:56:37;;;;;;;6.00;3.95;;;9.30;99.90;;;;;;5051579;28;20029;-75
2021/06/01 01:59:06;;;;;;;5.38;4.00;;;9.10;99.90;;;;;;5054993;28;20029;-75
2021/06/01 02:01:34;;;;;;;4.57;3.67;;;8.90;99.90;;;;;;5052615;28;20052;-75
2021/06/01 02:04:02;;;;;;;4.63;3.70;;;8.90;99.90;;;;;;5052835;28;20473;-75
2021/06/01 02:06:29;;;;;;;5.95;4.70;;;8.90;99.90;;;;;;5046678;28;20037;-75
2021/06/01 02:08:55;;;;;;;5.32;4.13;;;8.90;99.90;;;;;;5048881;28;20052;-75
2021/06/01 02:11:21;;;;;;;4.57;3.55;;;8.90;99.90;;;;;;5035548;28;20042;-75
2021/06/01 02:13:50;;;;;;;5.80;3.78;;;8.90;99.90;;;;;;5053822;28;20040;-75
2021/06/01 02:16:17;;;;;;;6.13;4.45;;;9.00;99.90;;;;;;5043323;28;20402;-75
2021/06/01 02:18:45;;;;;;;5.85;3.95;;;8.90;99.90;;;;;;5050485;28;20036;-75
2021/06/01 02:21:33;;;;;;;5.60;4.00;;;8.80;99.90;;;;;;5035197;28;20422;-75
2021/06/01 02:24:06;;;;;;;5.45;4.38;;;8.70;99.90;;;;;;5034668;28;20041;-75
2021/06/01 02:26:55;;;;;;;4.95;4.30;;;8.50;99.90;;;;;;5033773;28;20052;-75
2021/06/01 02:29:33;;;;;;;4.20;3.60;;;8.40;99.90;;;;;;5053074;28;20032;-75
2021/06/01 02:32:02;;;;;;;5.03;4.03;;;8.50;99.90;;;;;;5043585;28;20045;-75
2021/06/01 02:34:30;;;;;;;5.47;4.05;;;8.50;99.90;;;;;;5048410;28;20033;-75
2021/06/01 02:36:56;;;;;;;5.88;4.22;;;8.30;99.90;;;;;;5049606;28;20034;-75
2021/06/01 02:39:24;;;;;;;6.13;4.45;;;8.30;99.90;;;;;;5035728;28;20431;-75
2021/06/01 02:41:52;;;;;;;4.82;4.18;;;8.40;99.90;;;;;;5053163;28;20037;-75
2021/06/01 02:44:19;;;;;;;5.70;4.55;;;8.50;99.90;;;;;;5053682;28;20072;-75
2021/06/01 02:46:47;;;;;;;5.05;4.43;;;8.40;99.90;;;;;;5040218;28;20029;-75
2021/06/01 02:49:15;;;;;;;6.72;4.60;;;8.40;99.90;;;;;;5053247;28;20033;-74
2021/06/01 02:51:42;;;;;;;5.85;4.57;;;8.40;99.90;;;;;;5038308;28;20132;-75
2021/06/01 02:54:09;;;;;;;5.10;4.03;;;8.40;99.90;;;;;;5051651;28;20049;-74
2021/06/01 02:56:37;;;;;;;5.93;4.32;;;8.40;99.90;;;;;;5052566;28;20472;-74
2021/06/01 02:59:07;;;;;;;5.28;4.22;;;8.40;99.90;;;;;;5041705;28;20036;-75
2021/06/01 03:01:33;;;;;;;4.95;4.20;;;8.40;99.90;;;;;;5039224;28;20045;-75
2021/06/01 03:04:00;;;;;;;8.00;4.38;;;8.40;99.90;;;;;;5047939;28;20044;-75
2021/06/01 03:06:28;;;;;;;5.38;4.80;;;8.30;99.90;;;;;;5052715;28;20051;-75
2021/06/01 03:08:55;;;;;;;8.13;4.78;;;8.30;99.90;;;;;;5039214;28;20036;-75
2021/06/01 03:11:22;;;;;;;6.22;4.57;;;8.30;99.90;;;;;;5052478;28;20474;-75
2021/06/01 03:13:52;;;;;;;5.97;4.63;;;8.20;99.90;;;;;;5052522;28;20052;-75
2021/06/01 03:16:19;;;;;;;5.63;4.47;;;8.10;99.90;;;;;;5049115;28;20025;-75
2021/06/01 03:18:46;;;;;;;8.05;4.55;;;8.00;99.90;;;;;;5033759;28;20033;-75
2021/06/01 03:21:14;;;;;;;6.00;4.55;;;8.00;99.90;;;;;;5033720;28;20049;-75
2021/06/01 03:23:42;;;;;;;6.75;4.80;;;8.00;99.90;;;;;;5042755;28;20036;-75
2021/06/01 03:26:09;;;;;;;5.20;4.22;;;8.00;99.90;;;;;;5053373;28;20029;-75
2021/06/01 03:28:35;;;;;;;7.20;4.82;;;8.00;99.90;;;;;;5043881;28;20032;-75
2021/06/01 03:31:02;;;;;;;6.35;4.53;;;7.90;99.90;;;;;;5051844;28;20041;-75
2021/06/01 03:33:29;;;;;;;7.53;5.70;;;7.90;99.90;;;;;;5052742;28;20045;-75
2021/06/01 03:35:55;;;;;;;5.82;4.20;;;7.90;99.90;;;;;;5052231;28;20043;-75
2021/06/01 03:38:22;;;;;;;7.32;4.88;;;7.90;99.90;;;;;;5052615;28;20037;-75
2021/06/01 03:40:49;;;;;;;6.28;4.88;;;7.90;99.90;;;;;;5040449;28;20056;-75
2021/06/01 03:43:15;;;;;;;6.28;4.90;;;7.90;99.90;;;;;;5033980;28;20025;-75
2021/06/01 03:45:41;;;;;;;6.03;4.65;;;7.80;99.90;;;;;;5046943;28;20363;-75
2021/06/01 03:48:08;;;;;;;6.10;5.10;;;7.80;99.90;;;;;;5043372;28;20500;-75
2021/06/01 03:50:34;;;;;;;8.63;4.75;;;7.80;99.90;;;;;;5038138;28;20399;-75
2021/06/01 03:53:02;;;;;;;6.05;4.88;;;7.90;99.90;;;;;;5033402;28;20036;-75
2021/06/01 03:55:28;;;;;;;8.73;5.70;;;7.80;99.90;;;;;;5041397;28;20029;-75
2021/06/01 03:57:54;;;;;;;8.60;5.72;;;7.80;99.90;;;;;;5046340;28;20025;-75
2021/06/01 04:00:23;;;;;;;5.65;4.75;;;7.90;99.90;;;;;;5035589;28;20037;-76
2021/06/01 04:02:50;;;;;;;6.60;4.97;;;7.90;99.90;;;;;;5049560;28;20489;-75
2021/06/01 04:05:16;;;;;;;7.82;5.10;;;7.90;99.90;;;;;;5033461;28;20455;-75
2021/06/01 04:07:45;;;;;;;4.93;4.32;;;7.90;99.90;;;;;;5034966;28;20431;-75
2021/06/01 04:10:11;;;;;;;8.13;4.82;;;8.00;99.90;;;;;;5048705;28;20034;-75
2021/06/01 04:12:37;;;;;;;5.63;4.80;;;8.10;99.90;;;;;;5033283;28;20494;-74
2021/06/01 04:15:04;;;;;;;6.68;5.07;;;8.10;99.90;;;;;;5032858;28;20033;-74
2021/06/01 04:17:30;;;;;;;6.32;4.78;;;8.20;99.90;;;;;;5022303;28;20038;-74
2021/06/01 04:19:57;;;;;;;6.63;4.65;;;8.30;99.90;;;;;;5032395;28;20029;-76
2021/06/01 04:22:23;;;;;;;4.72;4.03;;;8.70;99.90;;;;;;5052874;28;20052;-74
2021/06/01 04:24:49;;;;;;;4.82;3.50;;;9.70;99.90;;;;;;5051448;28;20036;-75
2021/06/01 04:27:15;;;;;;;5.40;3.88;;;10.60;99.90;;;;;;5023196;28;20037;-74
2021/06/01 04:29:42;;;;;;;4.22;3.20;;;10.90;98.30;;;;;;5055622;28;20101;-79
2021/06/01 04:32:08;;;;;;;5.47;3.80;;;11.00;98.10;;;;;;5052425;28;20036;-74
2021/06/01 04:34:35;;;;;;;3.28;2.97;;;11.70;95.30;;;;;;5050694;28;20402;-75
2021/06/01 04:37:02;;;;;;;4.00;3.17;;;12.50;91.50;;;;;;5046488;28;20040;-75
2021/06/01 04:39:29;;;;;;;3.75;2.80;;;13.00;86.90;;;;;;5040977;28;20033;-75
2021/06/01 04:41:55;;;;;;;3.70;3.25;;;13.80;81.40;;;;;;5034746;28;20053;-75
2021/06/01 04:44:21;;;;;;;2.67;2.22;;;14.10;78.40;;;;;;5038924;28;20405;-75
2021/06/01 04:46:47;;;;;;;2.83;2.45;;;14.60;75.20;;;;;;5051093;28;20032;-76
2021/06/01 04:49:14;;;;;;;3.28;2.90;;;15.10;71.80;;;;;;5049394;28;20041;-75
2021/06/01 04:51:40;;;;;;;2.97;2.47;;;15.50;68.90;;;;;;5039853;28;20477;-75
2021/06/01 04:54:06;;;;;;;3.20;2.40;;;16.00;66.70;;;;;;5051337;28;20065;-75
2021/06/01 04:56:32;;;;;;;4.30;2.80;;;16.20;66.00;;;;;;5051601;28;20028;-75
2021/06/01 04:58:58;;;;;;;3.03;2.28;;;17.10;62.30;;;;;;5050357;28;20048;-75
2021/06/01 05:01:25;;;;;;;2.60;2.38;;;17.80;60.00;;;;;;5032258;28;20483;-75
2021/06/01 05:03:52;;;;;;;3.28;2.55;;;17.40;60.00;;;;;;5031878;28;20033;-75
2021/06/01 05:06:18;;;;;;;3.35;2.05;;;18.00;58.30;;;;;;5034746;28;20041;-75
2021/06/01 05:08:44;;;;;;;3.38;1.98;;;18.20;57.70;;;;;;5051028;28;20379;-76
2021/06/01 05:11:11;;;;;;;3.15;2.35;;;19.30;55.00;;;;;;5051154;28;20036;-76
2021/06/01 05:13:37;;;;;;;2.00;1.80;;;20.30;53.20;;;;;;5047711;28;20052;-76
2021/06/01 05:16:04;;;;;;;3.33;2.03;;;21.30;50.80;;;;;;5031440;28;20033;-75
2021/06/01 05:18:31;;;;;;;2.05;1.85;;;21.90;49.90;;;;;;5032532;28;20391;-76
2021/06/01 05:20:57;;;;;;;3.45;2.00;;;23.00;47.40;;;;;;5049115;28;20025;-75
2021/06/01 05:23:23;;;;;;;3.13;2.00;;;23.60;45.20;;;;;;5054486;28;20453;-76
2021/06/01 05:25:49;;;;;;;2.85;2.33;;;24.00;45.90;;;;;;5045490;28;20475;-76
2021/06/01 05:28:16;;;;;;;3.35;2.22;;;24.00;44.00;;;;;;5041217;28;20033;-76
2021/06/01 05:31:25;;;;;;;3.47;2.65;;;23.10;44.70;;;;;;5054603;28;20040;-76
2021/06/01 05:33:36;;;;;;;2.80;1.73;;;21.60;47.00;;;;;;5045223;28;20479;-75
2021/06/01 05:36:04;;;;;;;5.30;2.20;;;21.10;47.80;;;;;;5054426;28;20272;-76
2021/06/01 05:38:31;;;;;;;2.25;1.70;;;21.40;47.50;;;;;;5038161;28;20033;-76
2021/06/01 05:40:59;;;;;;;2.10;1.75;;;21.80;46.60;;;;;;5051937;28;20501;-77
2021/06/01 05:43:25;;;;;;;3.00;2.08;;;22.60;46.90;;;;;;5054729;28;20040;-76
2021/06/01 05:45:52;;;;;;;2.80;2.00;;;23.80;43.30;;;;;;5045723;28;20041;-76
2021/06/01 05:48:18;;;;;;;4.68;2.17;;;23.70;43.60;;;;;;5044712;28;20041;-76
2021/06/01 05:50:45;;;;;;;3.03;1.90;;;24.00;43.00;;;;;;5035170;28;20447;-76
2021/06/01 05:53:12;;;;;;;3.50;2.15;;;23.90;42.80;;;;;;5047476;28;20029;-76
2021/06/01 05:55:38;;;;;;;3.40;2.05;;;24.30;42.60;;;;;;5036593;28;20025;-76
2021/06/01 05:58:05;;;;;;;3.97;2.38;;;24.90;42.40;;;;;;5038968;28;20041;-75
2021/06/01 06:00:32;;;;;;;3.38;1.95;;;24.20;42.30;;;;;;5054271;28;20044;-74
2021/06/01 06:03:00;;;;;;;2.60;2.00;;;23.50;43.60;;;;;;5053115;28;20056;-75
2021/06/01 06:05:27;;;;;;;4.25;1.77;;;23.90;44.30;;;;;;5055437;28;20044;-74
2021/06/01 06:07:53;;;;;;;4.05;2.13;;;23.90;43.50;;;;;;5038350;28;20040;-75
2021/06/01 06:10:19;;;;;;;1.88;1.55;;;24.20;42.80;;;;;;5043606;28;20384;-75
2021/06/01 06:12:46;;;;;;;2.28;1.63;;;23.90;43.20;;;;;;5034729;28;20375;-75
2021/06/01 06:15:19;;;;;;;2.85;1.33;;;23.00;44.70;;;;;;5043947;28;20051;-75
2021/06/01 06:18:02;;;;;;;3.80;1.92;;;23.30;43.80;;;;;;5053645;28;20036;-75
2021/06/01 06:20:29;;;;;;;5.72;2.08;;;24.30;43.20;;;;;;5053839;28;20033;-77
2021/06/01 06:22:56;;;;;;;3.20;1.48;;;23.90;41.50;;;;;;5039528;28;20044;-76
2021/06/01 06:25:22;;;;;;;2.95;1.80;;;23.00;42.80;;;;;;5054050;28;20040;-76
2021/06/01 06:27:48;;;;;;;2.35;1.70;;;22.30;43.60;;;;;;5052469;28;20040;-76
2021/06/01 06:30:16;;;;;;;2.63;1.42;;;22.80;43.40;;;;;;5054240;28;20029;-76
2021/06/01 06:32:42;;;;;;;2.95;1.52;;;23.40;42.30;;;;;;5051353;28;20045;-76
2021/06/01 06:35:09;;;;;;;2.75;1.60;;;23.20;42.60;;;;;;5036063;28;20037;-75
2021/06/01 06:37:36;;;;;;;1.92;1.65;;;23.30;42.30;;;;;;5051833;28;20521;-76
2021/06/01 06:40:05;;;;;;;2.17;1.40;;;23.00;43.30;;;;;;5053231;28;20032;-76
2021/06/01 06:42:33;;;;;;;4.68;1.90;;;23.40;42.80;;;;;;5054194;28;20465;-76
2021/06/01 06:44:59;;;;;;;1.80;1.45;;;22.30;43.70;;;;;;5039999;28;20033;-76
2021/06/01 06:47:40;;;;;;;4.05;1.42;;;23.00;43.30;;;;;;5053197;28;20033;-77
2021/06/01 06:50:09;;;;;;;2.67;1.40;;;23.50;43.20;;;;;;5034740;28;20025;-76
2021/06/01 06:52:36;;;;;;;2.55;1.70;;;24.00;42.80;;;;;;5043475;28;20045;-76
2021/06/01 06:55:05;;;;;;;3.13;1.15;;;25.10;41.20;;;;;;5043562;28;20032;-76
2021/06/01 06:57:31;;;;;;;2.30;1.63;;;25.20;41.00;;;;;;5035246;28;20029;-75
2021/06/01 06:59:57;;;;;;;2.25;1.30;;;24.60;41.00;;;;;;5040302;28;20028;-75
2021/06/01 07:02:25;;;;;;;2.55;1.33;;;25.50;41.80;;;;;;5051515;28;20474;-76
2021/06/01 07:04:52;;;;;;;2.72;1.02;;;26.20;38.20;;;;;;5052208;28;20127;-76
2021/06/01 07:07:18;;;;;;;2.08;1.35;;;25.10;39.60;;;;;;5053021;28;20470;-76
2021/06/01 07:09:44;;;;;;;2.15;1.27;;;24.00;40.60;;;;;;5048954;28;20045;-75
2021/06/01 07:12:12;;;;;;;5.10;1.30;;;23.50;40.20;;;;;;5033966;28;20435;-75
2021/06/01 07:15:14;;;;;;;1.92;1.40;;;24.40;41.30;;;;;;5050775;28;20025;-75
2021/06/01 07:17:45;;;;;;;2.38;1.38;;;24.40;39.40;;;;;;5002007;28;20060;-75
2021/06/01 07:20:14;;;;;;;3.97;1.50;;;24.80;39.50;;;;;;5044485;28;20041;-76
2021/06/01 07:22:41;;;;;;;3.17;1.40;;;24.10;39.60;;;;;;5038124;28;20053;-75
2021/06/01 07:25:08;;;;;;;3.65;1.70;;;23.40;41.10;;;;;;5052395;28;20029;-75
2021/06/01 07:27:34;;;;;;;3.13;1.65;;;23.70;41.70;;;;;;5037153;28;20037;-77
2021/06/01 07:30:01;;;;;;;3.97;1.70;;;25.20;40.40;;;;;;5051816;28;20049;-75
2021/06/01 07:32:27;;;;;;;4.22;1.30;;;25.20;40.70;;;;;;5051731;28;20032;-76
2021/06/01 07:34:53;;;;;;;1.25;1.10;;;24.80;40.60;;;;;;5052157;28;20036;-76
2021/06/01 07:37:19;;;;;;;1.50;1.20;;;25.90;39.70;;;;;;5043999;28;20060;-74
2021/06/01 07:39:46;;;;;;;2.22;1.38;;;25.70;38.60;;;;;;5047332;28;20404;-73
2021/06/01 07:42:12;;;;;;;4.13;1.17;;;25.60;38.60;;;;;;5052171;28;20048;-74
2021/06/01 07:44:38;;;;;;;2.45;1.50;;;25.20;38.80;;;;;;5040564;28;20029;-74
2021/06/01 07:47:05;;;;;;;3.30;1.50;;;24.10;39.40;;;;;;5033619;28;20482;-74
2021/06/01 07:49:31;;;;;;;2.72;1.63;;;24.80;39.90;;;;;;5033598;28;20037;-75
2021/06/01 07:51:57;;;;;;;2.72;1.50;;;25.50;39.90;;;;;;5032902;28;20041;-75
2021/06/01 07:54:24;;;;;;;2.47;1.10;;;25.80;38.00;;;;;;5045231;28;20041;-75
2021/06/01 07:56:50;;;;;;;3.75;1.67;;;25.70;37.50;;;;;;5051109;28;20351;-75
2021/06/01 07:59:17;;;;;;;2.28;1.20;;;26.30;37.20;;;;;;5034102;28;20026;-75
2021/06/01 08:01:43;;;;;;;2.15;1.30;;;25.50;38.50;;;;;;5039549;28;20036;-75
2021/06/01 08:04:09;;;;;;;2.47;1.30;;;25.60;37.90;;;;;;5051907;28;20025;-75
2021/06/01 08:06:37;;;;;;;2.35;1.20;;;25.50;37.50;;;;;;5046338;28;20033;-74
2021/06/01 08:09:05;;;;;;;2.45;1.30;;;25.10;38.90;;;;;;5036557;28;20028;-75
2021/06/01 08:11:31;;;;;;;1.77;1.30;;;25.90;37.70;;;;;;5038445;28;20392;-75
2021/06/01 08:13:58;;;;;;;1.63;1.20;;;25.80;37.00;;;;;;5062139;28;20045;-76
2021/06/01 08:16:24;;;;;;;2.38;1.20;;;25.30;37.20;;;;;;5065334;28;20037;-76
2021/06/01 08:19:13;;;;;;;2.15;1.65;;;24.70;38.80;;;;;;5056865;28;20044;-76
2021/06/01 08:21:55;;;;;;;2.78;1.17;;;24.60;37.60;;;;;;5052268;28;20485;-78
2021/06/01 08:24:21;;;;;;;2.80;1.15;;;23.70;38.90;;;;;;5015800;28;20435;-75
2021/06/01 08:26:48;;;;;;;1.92;1.30;;;23.60;39.40;;;;;;5051134;28;20048;-77
2021/06/01 08:29:14;;;;;;;3.13;1.40;;;23.80;39.20;;;;;;5041257;28;20041;-74
2021/06/01 08:31:41;;;;;;;2.67;1.25;;;24.80;38.50;;;;;;5043272;28;20453;-75
2021/06/01 08:34:08;;;;;;;2.38;1.42;;;24.90;38.50;;;;;;5049848;28;20052;-75
2021/06/01 08:36:34;;;;;;;3.28;1.50;;;25.60;38.20;;;;;;5052366;28;20036;-75
2021/06/01 08:39:01;;;;;;;3.70;1.50;;;26.30;38.30;;;;;;5032923;28;20037;-76
2021/06/01 08:41:27;;;;;;;2.53;1.27;;;25.30;37.10;;;;;;5032976;28;20378;-77
2021/06/01 08:43:54;;;;;;;1.98;1.13;;;25.50;37.60;;;;;;5039077;28;20037;-74
2021/06/01 08:46:23;;;;;;;2.78;1.35;;;25.40;37.50;;;;;;5050402;28;20048;-75
2021/06/01 08:48:51;;;;;;;2.50;1.60;;;25.30;38.00;;;;;;5050025;28;20045;-73
2021/06/01 08:51:20;;;;;;;1.48;1.27;;;25.50;37.80;;;;;;5051142;28;20040;-73
2021/06/01 08:53:52;;;;;;;2.97;1.05;;;25.70;38.60;;;;;;5050540;28;20041;-73
2021/06/01 08:56:19;;;;;;;1.38;1.10;;;26.40;37.90;;;;;;5049769;28;20486;-73
2021/06/01 08:58:49;;;;;;;1.88;1.15;;;27.10;37.00;;;;;;5051403;28;20040;-74
2021/06/01 09:01:19;;;;;;;2.88;1.25;;;26.10;37.00;;;;;;5050928;28;20477;-75
2021/06/01 09:03:59;;;;;;;1.23;1.13;;;26.10;37.80;;;;;;5043586;28;20049;-74
2021/06/01 09:09:15;;;;;;;2.90;1.20;;;25.60;37.30;;;;;;5035323;28;20493;-75
2021/06/01 09:14:47;;;;;;;5.23;1.53;;;26.30;36.90;;;;;;5051451;28;20036;-75
2021/06/01 09:22:38;;;;;;;3.22;1.80;;;24.60;38.00;;;;;;5047039;28;20029;-74
2021/06/01 09:25:16;;;;;;;2.97;1.50;;;25.20;38.70;;;;;;5036993;28;20032;-74
2021/06/01 09:27:54;;;;;;;2.75;1.20;;;25.60;36.20;;;;;;5037857;28;20037;-73
2021/06/01 09:30:42;;;;;;;1.50;1.08;;;26.30;36.90;;;;;;5044198;28;20032;-74
2021/06/01 09:33:25;;;;;;;1.40;1.30;;;25.70;36.70;;;;;;5050439;28;20261;-75
2021/06/01 09:35:56;;;;;;;1.25;1.10;;;25.60;36.10;;;;;;5038412;28;20395;-75
2021/06/01 09:38:43;;;;;;;2.90;1.33;;;25.40;36.80;;;;;;5039169;28;20049;-74
2021/06/01 09:41:25;;;;;;;2.55;1.40;;;23.70;37.10;;;;;;5044444;28;20040;-73
2021/06/01 09:44:02;;;;;;;1.85;1.45;;;24.30;38.90;;;;;;5047118;28;20055;-75
2021/06/01 09:46:53;;;;;;;2.30;1.45;;;24.80;37.70;;;;;;5051388;28;20033;-74
2021/06/01 09:49:20;;;;;;;2.90;1.42;;;25.20;37.10;;;;;;5050184;28;20052;-72
2021/06/01 09:51:57;;;;;;;1.80;1.23;;;25.00;37.20;;;;;;5050605;28;20033;-73
2021/06/01 09:54:50;;;;;;;1.75;1.05;;;24.70;37.10;;;;;;5049984;28;20054;-74
2021/06/01 09:57:21;;;;;;;2.58;1.25;;;24.50;37.30;;;;;;5048654;28;20037;-74
2021/06/01 10:00:13;;;;;;;2.28;1.42;;;23.90;37.30;;;;;;5050616;28;20215;-74
2021/06/01 10:02:45;;;;;;;2.05;1.33;;;24.10;36.80;;;;;;5050781;28;20076;-74
2021/06/01 10:05:19;;;;;;;2.45;1.40;;;23.50;37.40;;;;;;5051568;28;20041;-74
2021/06/01 10:07:47;;;;;;;1.67;1.42;;;24.30;37.00;;;;;;5036895;28;20486;-75
2021/06/01 10:10:15;;;;;;;1.60;1.25;;;24.30;36.90;;;;;;5042339;28;20073;-75
2021/06/01 10:12:44;;;;;;;2.38;1.05;;;24.10;37.10;;;;;;5054672;28;20024;-73
2021/06/01 10:15:12;;;;;;;1.55;1.15;;;24.00;38.20;;;;;;5053976;28;20617;-76
2021/06/01 10:17:38;;;;;;;1.80;1.25;;;23.90;37.50;;;;;;5052839;28;20511;-74
2021/06/01 10:20:05;;;;;;;2.42;1.27;;;24.70;38.10;;;;;;5028093;28;20048;-75
2021/06/01 10:22:31;;;;;;;6.32;1.40;;;25.10;35.70;;;;;;5054032;28;20051;-74
2021/06/01 10:24:59;;;;;;;1.45;1.15;;;24.30;36.40;;;;;;5052217;28;20048;-76
2021/06/01 10:27:26;;;;;;;2.15;1.13;;;23.70;37.20;;;;;;5038815;28;20057;-76
2021/06/01 10:29:53;;;;;;;2.60;1.55;;;23.00;37.60;;;;;;5042876;28;20040;-75
2021/06/01 10:32:21;;;;;;;2.00;1.30;;;22.70;38.30;;;;;;5046715;28;20046;-75
2021/06/01 10:34:48;;;;;;;1.27;0.98;;;23.10;38.10;;;;;;5044984;28;20056;-74
2021/06/01 10:51:58;;;;;;;2.58;1.33;;;23.00;38.50;;;;;;5038158;28;20028;-75
2021/06/01 10:54:50;;;;;;;1.52;0.98;;;22.80;38.00;;;;;;5052991;28;20108;-74
2021/06/01 10:57:17;;;;;;;2.15;1.17;;;23.00;37.80;;;;;;5036862;28;20407;-74
2021/06/01 10:59:53;;;;;;;2.15;1.13;;;23.00;37.70;;;;;;5036317;28;20048;-74
2021/06/01 11:02:20;;;;;;;4.57;1.10;;;23.00;37.90;;;;;;5034886;28;20048;-77
2021/06/01 11:05:07;;;;;;;1.77;1.17;;;22.90;38.40;;;;;;5052425;28;20049;-74
2021/06/01 11:08:01;;;;;;;1.83;1.20;;;23.10;38.20;;;;;;5033406;28;20395;-77
2021/06/01 11:10:44;;;;;;;1.65;0.90;;;23.20;37.60;;;;;;5049971;28;20044;-75
2021/06/01 11:13:19;;;;;;;1.85;1.27;;;23.40;37.60;;;;;;5052878;28;20043;-74
2021/06/01 11:15:56;;;;;;;1.70;1.15;;;23.50;37.20;;;;;;5039425;28;20040;-75
2021/06/01 11:18:41;;;;;;;2.78;1.20;;;23.40;37.80;;;;;;5033967;28;20037;-74
2021/06/01 11:21:57;;;;;;;1.75;1.15;;;23.30;37.50;;;;;;5037025;28;20041;-75
2021/06/01 11:32:54;;;;;;;2.63;1.38;;;24.00;37.50;;;;;;5034283;28;20026;-74
2021/06/01 11:35:27;;;;;;;3.65;1.25;;;23.50;38.40;;;;;;5051722;28;20043;-75
2021/06/01 11:40:29;;;;;;;2.10;1.33;;;23.20;38.60;;;;;;5042963;28;20029;-73
2021/06/01 11:43:08;;;;;;;3.78;1.30;;;23.70;39.10;;;;;;5034848;28;20414;-75
2021/06/01 11:46:10;;;;;;;1.87;1.00;;;24.00;39.40;;;;;;5047872;28;20033;-75
2021/06/01 11:51:23;;;;;;;3.67;1.40;;;23.80;38.00;;;;;;5045136;28;20040;-74
2021/06/01 11:53:52;;;;;;;2.35;1.30;;;23.80;38.00;;;;;;5071051;28;20045;-74
2021/06/01 11:56:46;;;;;;;7.35;1.27;;;23.90;37.60;;;;;;5057995;28;20032;-75
2021/06/01 12:18:47;;;;;;;2.95;1.27;;;24.00;37.20;;;;;;5033282;28;20044;-74
2021/06/01 12:21:20;;;;;;;3.28;1.30;;;24.10;37.40;;;;;;5032452;28;20045;-79
2021/06/01 12:23:57;;;;;;;1.90;1.10;;;24.30;38.30;;;;;;5033542;28;20060;-75
2021/06/01 12:31:57;;;;;;;1.85;1.40;;;24.40;36.40;;;;;;5052718;28;20029;-74
2021/06/01 12:45:51;;;;;;;3.22;1.25;;;24.60;37.50;;;;;;5036017;28;20033;-75
2021/06/01 13:40:18;;;;;;;2.05;1.70;;;24.70;36.40;;;;;;5034537;28;20046;-73
2021/06/01 13:48:53;;;;;;;1.67;1.30;;;25.00;36.20;;;;;;5035453;28;20255;-72
2021/06/01 13:56:35;;;;;;;3.05;1.30;;;24.60;36.20;;;;;;5036351;28;20376;-75
2021/06/01 15:09:02;;;;;;;2.65;1.20;;;25.40;35.70;;;;;;5043369;28;20040;-73
2021/06/01 15:49:29;;;;;;;2.15;1.58;;;25.20;35.70;;;;;;5034392;28;20534;-74
2021/06/01 15:52:19;;;;;;;3.17;1.65;;;25.40;35.20;;;;;;5039866;28;20382;-74
2021/06/01 16:14:09;;;;;;;3.55;3.08;;;25.20;35.80;;;;;;5052152;28;20048;-74
2021/06/01 16:33:23;;;;;;;3.00;1.45;;;25.20;35.00;;;;;;5032345;28;20045;-73
2021/06/01 16:42:35;;;;;;;4.53;1.45;;;25.10;36.00;;;;;;4997734;28;20050;-74
2021/06/01 17:03:12;;;;;;;2.92;1.77;;;25.20;35.80;;;;;;5051716;28;20029;-75
2021/06/01 17:06:43;;;;;;;2.25;1.45;;;24.90;35.70;;;;;;5033495;28;20394;-76
2021/06/01 17:11:59;;;;;;;5.40;1.23;;;25.00;36.30;;;;;;5032951;28;20418;-74
2021/06/01 17:14:27;;;;;;;2.83;1.10;;;25.00;36.30;;;;;;5033386;28;20057;-75
2021/06/01 17:16:58;;;;;;;1.58;1.23;;;25.00;36.00;;;;;;5053715;28;20052;-74
2021/06/01 17:36:00;;;;;;;1.60;1.30;;;24.50;36.30;;;;;;5043010;28;20049;-73
2021/06/01 17:38:27;;;;;;;2.93;1.27;;;24.60;36.70;;;;;;5036064;28;20045;-73
2021/06/01 17:40:58;;;;;;;1.50;1.10;;;24.60;36.10;;;;;;5042009;28;20291;-74
2021/06/01 17:43:32;;;;;;;;;;;24.60;36.50;;;;;;5054047;28;20434;-73
2021/06/01 17:46:00;;;;;;;3.33;1.52;;;24.40;36.20;;;;;;5053900;28;19913;-74
2021/06/01 17:51:11;;;;;;;3.97;1.20;;;24.40;35.80;;;;;;5054089;28;20469;-73
2021/06/01 17:53:45;;;;;;;1.73;1.23;;;24.20;36.30;;;;;;5054489;28;20109;-74
2021/06/01 17:56:17;;;;;;;1.80;1.00;;;24.20;35.90;;;;;;5035696;28;20045;-74
2021/06/01 17:58:44;;;;;;;2.85;1.35;;;24.20;36.00;;;;;;5036112;28;20034;-74
2021/06/01 18:01:13;;;;;;;3.83;1.40;;;24.10;36.30;;;;;;5035647;28;20030;-74
2021/06/01 18:06:29;;;;;;;2.70;1.23;;;24.10;37.10;;;;;;5052983;28;20462;-74
2021/06/01 18:37:12;;;;;;;3.47;1.33;;;23.50;38.60;;;;;;5049866;28;20045;-74
2021/06/01 19:50:54;;;;;;;4.93;1.88;;;18.30;53.00;;;;;;5052568;28;20033;-74
2021/06/01 19:53:22;;;;;;;3.25;1.92;;;18.20;53.40;;;;;;5052283;28;20037;-74
2021/06/01 19:55:48;;;;;;;3.28;1.95;;;18.00;53.70;;;;;;5035199;28;20033;-75
2021/06/01 19:58:15;;;;;;;2.35;2.05;;;17.90;54.10;;;;;;5044398;28;20033;-75
2021/06/01 20:00:42;;;;;;;2.63;2.00;;;17.70;54.80;;;;;;5052424;28;20039;-74
2021/06/01 20:03:09;;;;;;;3.20;1.90;;;17.60;55.00;;;;;;5043349;28;20039;-75
2021/06/01 20:05:39;;;;;;;3.33;1.70;;;17.60;55.30;;;;;;5052195;28;20040;-74
2021/06/01 20:08:11;;;;;;;5.45;2.28;;;17.60;55.80;;;;;;5049579;28;20068;-74
2021/06/01 20:10:37;;;;;;;2.80;2.05;;;17.40;56.20;;;;;;5015885;28;20056;-78
2021/06/01 20:13:04;;;;;;;2.05;1.67;;;17.30;56.70;;;;;;5051746;28;20509;-74
2021/06/01 20:15:35;;;;;;;3.72;2.15;;;17.20;57.30;;;;;;5052371;28;20036;-74
2021/06/01 20:18:05;;;;;;;3.78;2.03;;;17.10;57.70;;;;;;5038740;28;20040;-75
2021/06/01 20:20:34;;;;;;;4.13;1.77;;;17.10;58.10;;;;;;5032983;28;20363;-75
2021/06/01 20:23:04;;;;;;;2.50;1.98;;;17.00;58.60;;;;;;5044981;28;20033;-75